Terminal Aerodrome Forecast
Issued by NWS

Home | Current Version | Previous Version | Text Only | Print | Product List | Glossary On
Versions: 1 2 3 4 5 6 7 8 9 10 11 12 13 14 15 16 17 18 19 20 21 22
000
FTUS42 KRAH 252325
TAFINT
TAF
KINT 252325Z 2600/2624 18005KT P6SM FEW050
     FM260600 19005KT P6SM BKN045
     FM260900 20006KT P6SM OVC008
      TEMPO 2610/2613 OVC004
     FM261500 21007KT P6SM BKN015
     FM261900 21010KT P6SM BKN045=

USA.gov is the U.S. government's official web portal to all federal, state and local government web resources and services.